createdAt,value
2024-01-08T00:01:52.503Z,11.23
2024-01-08T00:04:54.540Z,11.73
2024-01-08T00:07:56.969Z,13.10
2024-01-08T00:10:59.601Z,11.80
2024-01-08T00:14:02.146Z,12.73
2024-01-08T00:17:04.316Z,13.50
2024-01-08T00:20:08.428Z,11.77
2024-01-08T00:23:11.203Z,11.47
2024-01-08T00:26:13.687Z,10.63
2024-01-08T00:29:15.770Z,11.17
2024-01-08T00:32:18.213Z,13.20
2024-01-08T00:35:20.585Z,9.67
2024-01-08T00:38:23.760Z,11.37
2024-01-08T00:41:25.953Z,8.23
2024-01-08T00:44:28.651Z,12.83
2024-01-08T00:47:30.924Z,13.23
2024-01-08T00:50:33.419Z,11.70
2024-01-08T00:53:35.512Z,12.50
2024-01-08T00:56:38.619Z,13.10
2024-01-08T00:59:40.667Z,13.43
2024-01-08T01:02:43.467Z,10.90
2024-01-08T01:05:45.976Z,10.77
2024-01-08T01:08:48.969Z,11.80
2024-01-08T01:11:51.284Z,6.73
2024-01-08T01:14:53.658Z,8.37
2024-01-08T01:17:55.835Z,11.70
2024-01-08T01:20:59.345Z,10.77
2024-01-08T01:24:01.621Z,11.43
2024-01-08T01:27:04.071Z,9.57
2024-01-08T01:30:06.892Z,10.47
2024-01-08T01:33:09.352Z,9.80
2024-01-08T01:36:11.436Z,8.37
2024-01-08T01:39:14.028Z,9.50
2024-01-08T01:42:17.788Z,11.10
2024-01-08T01:45:20.160Z,10.13
2024-01-08T01:48:24.194Z,11.90
2024-01-08T01:51:27.359Z,12.93
2024-01-08T01:54:30.051Z,12.00
2024-01-08T01:57:33.103Z,10.73
2024-01-08T02:00:35.388Z,12.03
2024-01-08T02:03:38.633Z,12.27
2024-01-08T02:06:41.612Z,10.73
2024-01-08T02:09:45.429Z,12.20
2024-01-08T02:12:48.133Z,9.30
2024-01-08T02:15:50.903Z,10.27
2024-01-08T02:18:53.015Z,12.03
2024-01-08T02:21:55.390Z,9.27
2024-01-08T02:24:57.469Z,12.53
2024-01-08T02:27:59.798Z,12.03
2024-01-08T02:31:01.978Z,11.53
2024-01-08T02:34:04.457Z,11.37
2024-01-08T02:37:06.671Z,12.37
2024-01-08T02:40:09.230Z,11.70
2024-01-08T02:43:11.600Z,11.23
2024-01-08T02:46:13.924Z,12.27
2024-01-08T02:49:16.031Z,11.13
2024-01-08T02:52:18.510Z,14.23
2024-01-08T02:55:21.133Z,11.30
2024-01-08T02:58:23.808Z,13.30
2024-01-08T03:01:25.923Z,9.40
2024-01-08T03:04:29.203Z,13.17
2024-01-08T03:07:31.707Z,12.13
2024-01-08T03:10:34.701Z,7.33
2024-01-08T03:13:36.769Z,11.53
2024-01-08T03:16:39.212Z,7.00
2024-01-08T03:19:41.283Z,10.63
2024-01-08T03:22:43.588Z,13.40
2024-01-08T03:25:45.701Z,16.57
2024-01-08T03:28:48.422Z,15.77
2024-01-08T03:31:51.080Z,13.10
2024-01-08T03:34:53.764Z,12.20
2024-01-08T03:37:56.400Z,11.70
2024-01-08T03:40:59.104Z,13.10
2024-01-08T03:44:01.240Z,9.40
2024-01-08T03:47:03.708Z,10.77
2024-01-08T03:50:06.823Z,12.33
2024-01-08T03:53:09.417Z,13.23
2024-01-08T03:56:11.882Z,9.53
2024-01-08T03:59:15.558Z,9.37
2024-01-08T04:02:17.718Z,6.73
2024-01-08T04:05:20.193Z,11.23
2024-01-08T04:08:22.450Z,12.27
2024-01-08T04:11:25.520Z,13.73
2024-01-08T04:14:29.164Z,12.87
2024-01-08T04:17:31.814Z,12.63
2024-01-08T04:20:34.052Z,10.30
2024-01-08T04:23:36.495Z,12.63
2024-01-08T04:26:39.688Z,11.20
2024-01-08T04:29:42.071Z,19.40
2024-01-08T04:32:44.494Z,24.60
2024-01-08T04:35:46.855Z,17.97
2024-01-08T04:38:48.916Z,14.63
2024-01-08T04:41:51.214Z,11.60
2024-01-08T04:44:53.203Z,14.50
2024-01-08T04:47:55.746Z,8.97
2024-01-08T04:50:57.979Z,13.20
2024-01-08T04:54:01.820Z,12.60
2024-01-08T04:57:04.295Z,10.80
2024-01-08T05:00:08.210Z,10.50
2024-01-08T05:03:12.432Z,13.20
2024-01-08T05:06:16.109Z,12.80
2024-01-08T05:09:18.770Z,11.70
2024-01-08T05:12:21.494Z,12.53
2024-01-08T05:15:23.629Z,10.03
2024-01-08T05:18:26.239Z,12.97
2024-01-08T05:21:29.388Z,11.63
2024-01-08T05:24:32.215Z,12.37
2024-01-08T05:27:34.213Z,11.87
2024-01-08T05:30:36.895Z,13.70
2024-01-08T05:33:39.446Z,12.87
2024-01-08T05:36:43.308Z,14.13
2024-01-08T05:39:45.461Z,14.93
2024-01-08T05:42:47.783Z,13.33
2024-01-08T05:45:51.304Z,12.27
2024-01-08T05:48:53.691Z,9.93
2024-01-08T05:51:55.922Z,11.57
2024-01-08T05:54:58.247Z,12.70
2024-01-08T05:58:00.327Z,13.37
2024-01-08T06:01:02.761Z,9.67
2024-01-08T06:04:05.693Z,8.30
2024-01-08T06:07:08.453Z,14.07
2024-01-08T06:10:10.694Z,13.43
2024-01-08T06:13:13.311Z,9.03
2024-01-08T06:16:19.004Z,14.80
2024-01-08T06:19:22.760Z,12.53
2024-01-08T06:22:25.149Z,8.43
2024-01-08T06:25:27.766Z,12.33
2024-01-08T06:28:30.559Z,12.43
2024-01-08T06:31:32.863Z,13.73
2024-01-08T06:34:34.959Z,8.27
2024-01-08T06:37:37.336Z,11.60
2024-01-08T06:40:39.421Z,13.10
2024-01-08T06:43:41.891Z,9.27
2024-01-08T06:46:44.696Z,13.77
2024-01-08T06:49:47.398Z,9.63
2024-01-08T06:52:50.065Z,11.33
2024-01-08T06:55:52.996Z,14.10
2024-01-08T06:58:55.027Z,10.03
2024-01-08T07:01:57.611Z,11.07
2024-01-08T07:05:00.391Z,10.30
2024-01-08T07:08:03.144Z,11.40
2024-01-08T07:11:05.446Z,11.90
2024-01-08T07:14:07.950Z,10.47
2024-01-08T07:17:10.096Z,12.73
2024-01-08T07:20:13.321Z,13.17
2024-01-08T07:23:15.545Z,14.67
2024-01-08T07:26:18.582Z,12.47
2024-01-08T07:29:20.957Z,13.40
2024-01-08T07:32:23.367Z,13.03
2024-01-08T07:35:25.615Z,15.30
2024-01-08T07:38:28.729Z,13.40
2024-01-08T07:41:30.890Z,11.40
2024-01-08T07:44:33.252Z,12.83
2024-01-08T07:47:35.397Z,15.43
2024-01-08T07:50:38.256Z,12.87
2024-01-08T07:53:40.447Z,14.23
2024-01-08T07:56:53.074Z,13.27
2024-01-08T08:00:02.851Z,13.83
2024-01-08T08:03:05.476Z,14.20
2024-01-08T08:06:08.051Z,16.50
2024-01-08T08:09:10.696Z,8.67
2024-01-08T08:12:13.073Z,9.60
2024-01-08T08:15:15.401Z,10.80
2024-01-08T08:18:17.544Z,10.73
2024-01-08T08:21:19.985Z,10.33
2024-01-08T08:24:22.358Z,11.27
2024-01-08T08:27:24.972Z,10.07
2024-01-08T08:30:27.725Z,13.40
2024-01-08T08:33:30.532Z,11.33
2024-01-08T08:36:32.737Z,8.57
2024-01-08T08:39:35.281Z,11.30
2024-01-08T08:42:37.655Z,12.10
2024-01-08T08:45:40.261Z,10.80
2024-01-08T08:48:44.130Z,10.90
2024-01-08T08:51:46.540Z,12.83
2024-01-08T08:54:48.573Z,11.37
2024-01-08T08:57:50.976Z,16.90
2024-01-08T09:00:53.164Z,14.83
2024-01-08T09:03:55.774Z,12.83
2024-01-08T09:06:58.819Z,7.57
2024-01-08T09:10:02.790Z,11.57
2024-01-08T09:13:04.956Z,9.50
2024-01-08T09:16:15.342Z,11.43
2024-01-08T09:19:17.412Z,10.53
2024-01-08T09:22:19.858Z,7.87
2024-01-08T09:25:21.952Z,11.33
2024-01-08T09:28:24.244Z,9.67
2024-01-08T09:31:26.318Z,12.33
2024-01-08T09:34:28.999Z,12.80
2024-01-08T09:37:31.338Z,11.17
2024-01-08T09:40:34.572Z,8.50
2024-01-08T09:43:38.626Z,9.60
2024-01-08T09:46:48.296Z,10.67
2024-01-08T09:49:51.172Z,10.10
2024-01-08T09:52:56.192Z,11.37
2024-01-08T09:55:59.508Z,11.50
2024-01-08T09:59:03.304Z,9.73
2024-01-08T10:02:05.697Z,11.63
2024-01-08T10:05:09.185Z,11.93
2024-01-08T10:08:11.513Z,10.83
2024-01-08T10:11:14.976Z,13.30
2024-01-08T10:14:18.983Z,10.30
2024-01-08T10:17:24.764Z,10.37
2024-01-08T10:20:27.450Z,12.30
2024-01-08T10:23:30.283Z,7.53
2024-01-08T10:26:32.438Z,9.73
2024-01-08T10:29:40.709Z,12.47
2024-01-08T10:32:43.572Z,11.10
2024-01-08T10:35:47.009Z,10.10
2024-01-08T10:38:50.905Z,10.80
2024-01-08T10:41:54.216Z,11.83
2024-01-08T10:44:56.199Z,7.43
2024-01-08T10:48:27.109Z,10.80
2024-01-08T10:51:30.080Z,9.03
2024-01-08T10:54:46.130Z,13.83
2024-01-08T10:58:20.504Z,9.00
2024-01-08T11:01:23.485Z,16.83
2024-01-08T11:04:25.547Z,11.20
2024-01-08T11:07:30.384Z,14.93
2024-01-08T11:10:34.098Z,11.00
2024-01-08T11:13:39.569Z,10.97
2024-01-08T11:16:42.041Z,12.93
2024-01-08T11:19:46.740Z,10.83
2024-01-08T11:22:49.743Z,10.33
2024-01-08T11:25:52.334Z,10.53
2024-01-08T11:29:06.118Z,14.17
2024-01-08T11:32:36.950Z,11.20
2024-01-08T11:35:55.554Z,16.17
2024-01-08T11:39:14.423Z,16.90
2024-01-08T11:42:17.068Z,11.67
2024-01-08T11:45:23.202Z,12.20
2024-01-08T11:48:26.063Z,9.20
2024-01-08T11:51:28.431Z,12.43
2024-01-08T11:54:31.172Z,17.73
2024-01-08T11:57:35.388Z,15.00
2024-01-08T12:00:37.638Z,12.13
2024-01-08T12:03:40.647Z,13.93
2024-01-08T12:06:42.821Z,12.40
2024-01-08T12:09:46.353Z,11.00
2024-01-08T12:12:48.348Z,12.53
2024-01-08T12:15:50.657Z,11.50
2024-01-08T12:18:54.196Z,15.13
2024-01-08T12:21:56.928Z,9.17
2024-01-08T12:24:59.656Z,12.67
2024-01-08T12:28:02.829Z,12.57
2024-01-08T12:31:06.760Z,10.27
2024-01-08T12:34:09.379Z,11.87
2024-01-08T12:37:15.280Z,11.53
2024-01-08T12:40:17.841Z,10.60
2024-01-08T12:43:20.909Z,11.47
2024-01-08T12:46:23.328Z,13.83
2024-01-08T12:49:26.604Z,12.63
2024-01-08T12:52:29.122Z,10.53
2024-01-08T12:55:31.171Z,11.10
2024-01-08T12:58:33.493Z,12.03
2024-01-08T13:01:36.847Z,9.93
2024-01-08T13:04:39.506Z,11.33
2024-01-08T13:07:42.032Z,17.23
2024-01-08T13:10:44.751Z,10.70
2024-01-08T13:13:48.146Z,14.00
2024-01-08T13:16:50.642Z,12.50
2024-01-08T13:19:54.045Z,12.80
2024-01-08T13:22:58.228Z,15.33
2024-01-08T13:26:00.970Z,11.00
2024-01-08T13:29:13.618Z,12.40
2024-01-08T13:32:17.164Z,16.80
2024-01-08T13:35:19.878Z,13.13
2024-01-08T13:38:22.497Z,15.87
2024-01-08T13:41:25.047Z,11.60
2024-01-08T13:44:27.161Z,13.57
2024-01-08T13:47:29.621Z,19.70
2024-01-08T13:50:31.950Z,10.57
2024-01-08T13:53:34.429Z,9.33
2024-01-08T13:56:36.659Z,9.90
2024-01-08T13:59:39.453Z,14.90
2024-01-08T14:02:43.004Z,14.17
2024-01-08T14:05:47.334Z,17.50
2024-01-08T14:08:49.401Z,14.73
2024-01-08T14:11:51.820Z,10.43
2024-01-08T14:14:54.008Z,13.93
2024-01-08T14:17:58.457Z,44.93
2024-01-08T14:21:00.647Z,15.80
2024-01-08T14:24:05.741Z,17.67
2024-01-08T14:27:07.793Z,10.00
2024-01-08T14:30:11.097Z,14.17
2024-01-08T14:33:13.455Z,13.33
2024-01-08T14:36:15.849Z,12.50
2024-01-08T14:39:22.663Z,10.73
2024-01-08T14:42:42.589Z,11.87
2024-01-08T14:45:45.590Z,11.43
2024-01-08T14:48:48.010Z,13.40
2024-01-08T14:51:50.380Z,13.03
2024-01-08T14:54:52.760Z,10.90
2024-01-08T14:57:55.154Z,14.27
2024-01-08T15:00:57.262Z,21.00
2024-01-08T15:03:59.777Z,33.60
2024-01-08T15:07:04.414Z,23.43
2024-01-08T15:10:09.465Z,18.13
2024-01-08T15:13:11.881Z,13.70
2024-01-08T15:16:15.708Z,16.90
2024-01-08T15:19:19.346Z,17.77
2024-01-08T15:22:21.953Z,16.00
2024-01-08T15:25:24.113Z,20.63
2024-01-08T15:28:27.288Z,13.37
2024-01-08T15:31:29.347Z,19.43
2024-01-08T15:34:31.724Z,13.40
2024-01-08T15:37:33.818Z,13.97
2024-01-08T15:40:36.504Z,14.40
2024-01-08T15:43:38.623Z,16.90
2024-01-08T15:46:43.690Z,17.47
2024-01-08T15:49:46.147Z,19.13
2024-01-08T15:52:48.618Z,14.07
2024-01-08T15:55:50.740Z,20.67
2024-01-08T15:58:55.198Z,22.73
2024-01-08T16:01:57.250Z,16.67
2024-01-08T16:05:00.076Z,12.60
2024-01-08T16:08:04.037Z,32.80
2024-01-08T16:11:07.282Z,31.13
2024-01-08T16:14:09.719Z,21.67
2024-01-08T16:17:12.128Z,26.33
2024-01-08T16:20:14.365Z,21.63
2024-01-08T16:23:18.556Z,17.83
2024-01-08T16:26:20.634Z,20.47
2024-01-08T16:29:23.293Z,16.97
2024-01-08T16:32:25.485Z,16.77
2024-01-08T16:35:28.080Z,15.93
2024-01-08T16:38:31.170Z,20.93
2024-01-08T16:41:33.544Z,15.60
2024-01-08T16:44:36.078Z,22.30
2024-01-08T16:47:47.987Z,23.03
2024-01-08T16:50:53.938Z,18.00
2024-01-08T16:53:57.853Z,23.97
2024-01-08T16:57:02.043Z,20.20
2024-01-08T17:00:05.303Z,20.60
2024-01-08T17:03:08.047Z,26.40
2024-01-08T17:06:11.340Z,18.47
2024-01-08T17:09:14.350Z,18.93
2024-01-08T17:12:16.808Z,18.03
2024-01-08T17:15:19.499Z,17.10
2024-01-08T17:18:22.171Z,18.07
2024-01-08T17:21:24.391Z,18.17
2024-01-08T17:24:27.081Z,18.13
2024-01-08T17:27:31.067Z,14.37
2024-01-08T17:30:33.414Z,17.23
2024-01-08T17:33:36.107Z,17.20
2024-01-08T17:36:39.038Z,16.87
2024-01-08T17:39:41.556Z,16.40
2024-01-08T17:42:43.849Z,11.23
2024-01-08T17:45:45.992Z,15.67
2024-01-08T17:48:48.635Z,19.37
2024-01-08T17:51:50.703Z,17.93
2024-01-08T17:54:53.579Z,17.73
2024-01-08T17:57:55.837Z,18.33
2024-01-08T18:00:58.548Z,17.57
2024-01-08T18:04:00.912Z,17.50
2024-01-08T18:07:03.815Z,20.23
2024-01-08T18:10:07.178Z,15.07
2024-01-08T18:13:09.773Z,17.40
2024-01-08T18:16:11.771Z,16.83
2024-01-08T18:19:14.485Z,17.07
2024-01-08T18:22:16.991Z,16.37
2024-01-08T18:25:20.438Z,17.80
2024-01-08T18:28:22.764Z,13.90
2024-01-08T18:31:25.108Z,16.57
2024-01-08T18:34:29.296Z,16.33
2024-01-08T18:37:34.704Z,16.83
2024-01-08T18:40:36.758Z,14.50
2024-01-08T18:43:39.152Z,14.67
2024-01-08T18:46:41.164Z,16.50
2024-01-08T18:49:44.661Z,11.43
2024-01-08T18:52:47.152Z,14.53
2024-01-08T18:55:49.731Z,13.63
2024-01-08T18:58:52.128Z,17.03
2024-01-08T19:01:54.651Z,18.93
2024-01-08T19:04:57.194Z,16.20
2024-01-08T19:07:59.637Z,21.23
2024-01-08T19:11:04.740Z,18.57
2024-01-08T19:14:07.287Z,16.17
2024-01-08T19:17:09.508Z,16.30
2024-01-08T19:20:12.190Z,15.67
2024-01-08T19:23:15.475Z,18.13
2024-01-08T19:26:18.083Z,15.17
2024-01-08T19:29:20.161Z,16.50
2024-01-08T19:32:24.389Z,18.03
2024-01-08T19:35:26.679Z,21.57
2024-01-08T19:38:29.147Z,18.97
2024-01-08T19:41:31.495Z,18.03
2024-01-08T19:44:36.793Z,19.60
2024-01-08T19:47:38.949Z,23.30
2024-01-08T19:50:42.219Z,21.50
2024-01-08T19:53:44.481Z,22.57
2024-01-08T19:56:47.790Z,20.67
2024-01-08T19:59:50.058Z,18.00
2024-01-08T20:02:52.927Z,17.97
2024-01-08T20:05:58.031Z,18.40
2024-01-08T20:09:00.823Z,18.83
2024-01-08T20:12:06.204Z,16.80
2024-01-08T20:15:11.770Z,17.50
2024-01-08T20:18:14.019Z,18.40
2024-01-08T20:21:16.408Z,15.23
2024-01-08T20:24:18.609Z,18.00
2024-01-08T20:27:21.675Z,18.90
2024-01-08T20:30:24.199Z,17.60
2024-01-08T20:33:27.022Z,16.53
2024-01-08T20:36:30.174Z,19.63
2024-01-08T20:39:32.643Z,20.43
2024-01-08T20:42:34.663Z,20.50
2024-01-08T20:45:37.123Z,19.23
2024-01-08T20:48:39.127Z,20.20
2024-01-08T20:51:41.711Z,18.90
2024-01-08T20:54:45.673Z,14.17
2024-01-08T20:57:48.049Z,21.53
2024-01-08T21:00:50.548Z,19.93
2024-01-08T21:03:53.365Z,21.50
2024-01-08T21:06:55.521Z,21.83
2024-01-08T21:09:58.116Z,19.40
2024-01-08T21:13:00.101Z,18.77
2024-01-08T21:16:02.742Z,18.87
2024-01-08T21:19:06.296Z,20.93
2024-01-08T21:22:11.204Z,20.60
2024-01-08T21:25:13.378Z,22.77
2024-01-08T21:28:16.338Z,20.20
2024-01-08T21:31:18.468Z,21.60
2024-01-08T21:34:21.394Z,18.47
2024-01-08T21:37:23.603Z,20.57
2024-01-08T21:40:27.128Z,19.60
2024-01-08T21:43:29.528Z,20.83
2024-01-08T21:46:31.831Z,19.27
2024-01-08T21:49:34.333Z,22.70
2024-01-08T21:52:36.932Z,17.77
2024-01-08T21:55:40.047Z,20.57
2024-01-08T21:58:42.588Z,18.67
2024-01-08T22:01:44.636Z,18.43
2024-01-08T22:04:47.249Z,20.30
2024-01-08T22:07:49.303Z,20.87
2024-01-08T22:10:51.662Z,21.20
2024-01-08T22:13:54.958Z,20.53
2024-01-08T22:16:57.202Z,21.73
2024-01-08T22:19:59.552Z,20.77
2024-01-08T22:23:02.132Z,20.10
2024-01-08T22:26:04.366Z,20.00
2024-01-08T22:29:06.916Z,21.53
2024-01-08T22:32:10.204Z,20.93
2024-01-08T22:35:13.008Z,23.53
2024-01-08T22:38:15.133Z,23.47
2024-01-08T22:41:17.780Z,23.17
2024-01-08T22:44:25.314Z,20.20
2024-01-08T22:47:28.878Z,21.43
2024-01-08T22:50:31.021Z,21.03
2024-01-08T22:53:33.420Z,22.40
2024-01-08T22:56:35.440Z,21.97
2024-01-08T22:59:37.948Z,23.87
2024-01-08T23:02:40.571Z,24.90
2024-01-08T23:05:43.220Z,23.80
2024-01-08T23:08:45.377Z,24.30
2024-01-08T23:11:47.961Z,26.07
2024-01-08T23:14:50.207Z,24.63
2024-01-08T23:17:53.031Z,23.43
2024-01-08T23:20:55.229Z,24.00
2024-01-08T23:23:57.764Z,25.27
2024-01-08T23:27:02.080Z,25.87
2024-01-08T23:30:05.442Z,24.07
2024-01-08T23:33:07.970Z,24.37
2024-01-08T23:36:10.341Z,26.60
2024-01-08T23:39:12.399Z,26.03
2024-01-08T23:42:14.740Z,25.30
2024-01-08T23:45:17.137Z,27.27
2024-01-08T23:48:19.659Z,27.60
2024-01-08T23:51:21.743Z,24.93
2024-01-08T23:54:24.421Z,23.50
2024-01-08T23:57:26.831Z,22.63
